Liberty of The Seas — C6VQ8 — position and weather

sailwx.info

Track history (hours):
 
Tides and Currents Weather Stations Pressure Air Temp Water Temp Dewpoint Dewpoint Depression Visibility Wind Speed Wind Dir Waves Ship Positions

Liberty of The Seas

Last reported at 2017-Feb-20 01:15 UTC. Time now 2017-Feb-24 08:21 UTC.
Position N 28°60' W 094°08'.

Type: Passenger vessel. MMSI: 309436000.

Date/timePositionNaut miles runAvg speedWind from/ knotsBaromVisibWave heightAir tempDewpointWater temp
2017-Feb-20 01:15N 28°60' W 094°08'1115.5
2017-Feb-20 00:33N 29°06' W 094°18'1515.2
2017-Feb-19 23:33N 29°14' W 094°33'1311.6
2017-Feb-19 22:24N 29°20' W 094°47'2 2.1
2017-Feb-19 21:26N 29°19' W 094°48'12 1.1
2017-Feb-19 10:31N 29°17' W 094°34'1615.1
2017-Feb-19 09:29N 29°07' W 094°21'1515.4
2017-Feb-19 08:32N 28°58' W 094°07'1717.1
2017-Feb-19 07:33N 28°49' W 093°51'1918.6
2017-Feb-19 06:33N 28°39' W 093°33'1918.7
2017-Feb-19 05:34N 28°28' W 093°16'1918.7
2017-Feb-19 04:32N 28°17' W 092°59'1818.3
2017-Feb-19 03:33N 28°04' W 092°45'1818.5
2017-Feb-19 02:33N 27°49' W 092°32'2418.5
2017-Feb-19 01:15N 27°34' W 092°11'  
2017-Feb-14 21:31N 20°35' W 086°56'7 7.1
2017-Feb-14 20:33N 20°29' W 086°59'0 0.0
2017-Feb-14 19:33N 20°29' W 086°59'0 0.0
2017-Feb-14 18:33N 20°29' W 086°59'0 0.0
2017-Feb-14 17:33N 20°29' W 086°59'0 0.0
2017-Feb-14 16:33N 20°29' W 086°59'0 0.0
2017-Feb-14 15:33N 20°29' W 086°59'0 0.0
2017-Feb-14 14:30N 20°29' W 086°59'0 0.0
2017-Feb-14 13:33N 20°29' W 086°59'0 0.0
2017-Feb-14 12:33N 20°29' W 086°59'1 0.5
2017-Feb-14 11:34N 20°29' W 086°59'67919.3
2017-Feb-13 00:18N 29°20' W 094°46'0 0.0
2017-Feb-12 14:33N 29°20' W 094°46'10 2.3
2017-Feb-12 10:20N 29°19' W 094°35'5 5.5
2017-Feb-12 09:28N 29°15' W 094°32'1415.3
2017-Feb-12 08:33N 29°06' W 094°19'1615.5
2017-Feb-12 07:32N 28°58' W 094°04'2320.2
2017-Feb-12 06:25N 28°45' W 093°43'61319.8
2017-Feb-10 23:29N 20°36' W 086°55'8 8.2
2017-Feb-10 22:31N 20°29' W 086°59'0 0.0
2017-Feb-10 21:31N 20°29' W 086°59'0 0.0
2017-Feb-10 20:28N 20°29' W 086°59'0 0.0
2017-Feb-10 19:31N 20°29' W 086°59'0 0.0
2017-Feb-10 18:32N 20°29' W 086°59'0 0.0
2017-Feb-10 17:31N 20°29' W 086°59'0 0.0
2017-Feb-10 16:31N 20°29' W 086°59'0 0.0
2017-Feb-10 15:25N 20°29' W 086°59'0 0.0
2017-Feb-10 14:28N 20°29' W 086°59'0 0.0
2017-Feb-10 13:28N 20°29' W 086°59'1 1.4
2017-Feb-10 12:34N 20°29' W 086°60'  
Track history (hours):
 
Tides and Currents Weather Stations Pressure Air Temp Water Temp Dewpoint Dewpoint Depression Visibility Wind Speed Wind Dir Waves Ship Positions

Liberty of The Seas

Last reported at 2017-Feb-20 01:15 UTC. Time now 2017-Feb-24 08:21 UTC.
Position N 28°60' W 094°08'.

Type: Passenger vessel. MMSI: 309436000.

Date/timePositionNaut miles runAvg speedWind from/ knotsBaromVisibWave heightAir tempDewpointWater temp
2017-Feb-20 01:15N 28°60' W 094°08'1115.5
2017-Feb-20 00:33N 29°06' W 094°18'1515.2
2017-Feb-19 23:33N 29°14' W 094°33'1311.6
2017-Feb-19 22:24N 29°20' W 094°47'2 2.1
2017-Feb-19 21:26N 29°19' W 094°48'12 1.1
2017-Feb-19 10:31N 29°17' W 094°34'1615.1
2017-Feb-19 09:29N 29°07' W 094°21'1515.4
2017-Feb-19 08:32N 28°58' W 094°07'1717.1
2017-Feb-19 07:33N 28°49' W 093°51'1918.6
2017-Feb-19 06:33N 28°39' W 093°33'1918.7
2017-Feb-19 05:34N 28°28' W 093°16'1918.7
2017-Feb-19 04:32N 28°17' W 092°59'1818.3
2017-Feb-19 03:33N 28°04' W 092°45'1818.5
2017-Feb-19 02:33N 27°49' W 092°32'2418.5
2017-Feb-19 01:15N 27°34' W 092°11'  
2017-Feb-14 21:31N 20°35' W 086°56'7 7.1
2017-Feb-14 20:33N 20°29' W 086°59'0 0.0
2017-Feb-14 19:33N 20°29' W 086°59'0 0.0
2017-Feb-14 18:33N 20°29' W 086°59'0 0.0
2017-Feb-14 17:33N 20°29' W 086°59'0 0.0
2017-Feb-14 16:33N 20°29' W 086°59'0 0.0
2017-Feb-14 15:33N 20°29' W 086°59'0 0.0
2017-Feb-14 14:30N 20°29' W 086°59'0 0.0
2017-Feb-14 13:33N 20°29' W 086°59'0 0.0
2017-Feb-14 12:33N 20°29' W 086°59'1 0.5
2017-Feb-14 11:34N 20°29' W 086°59'67919.3
2017-Feb-13 00:18N 29°20' W 094°46'0 0.0
2017-Feb-12 14:33N 29°20' W 094°46'10 2.3
2017-Feb-12 10:20N 29°19' W 094°35'5 5.5
2017-Feb-12 09:28N 29°15' W 094°32'1415.3
2017-Feb-12 08:33N 29°06' W 094°19'1615.5
2017-Feb-12 07:32N 28°58' W 094°04'2320.2
2017-Feb-12 06:25N 28°45' W 093°43'61319.8
2017-Feb-10 23:29N 20°36' W 086°55'8 8.2
2017-Feb-10 22:31N 20°29' W 086°59'0 0.0
2017-Feb-10 21:31N 20°29' W 086°59'0 0.0
2017-Feb-10 20:28N 20°29' W 086°59'0 0.0
2017-Feb-10 19:31N 20°29' W 086°59'0 0.0
2017-Feb-10 18:32N 20°29' W 086°59'0 0.0
2017-Feb-10 17:31N 20°29' W 086°59'0 0.0
2017-Feb-10 16:31N 20°29' W 086°59'0 0.0
2017-Feb-10 15:25N 20°29' W 086°59'0 0.0
2017-Feb-10 14:28N 20°29' W 086°59'0 0.0
2017-Feb-10 13:28N 20°29' W 086°59'1 1.4
2017-Feb-10 12:34N 20°29' W 086°60'  

Dump ship's entire track history